Clayburn, British Columbia

4:02 AM PDT on April 26, 2017 (GMT -0700)
Old Clayburn | | Change Station

Elev 243 ft 49.06 °N, 122.26 °W | Updated 19 seconds ago

Overcast
Overcast
47.1 °F
Feels Like 47 °F
N
0.0
Wind Variable Wind from SSW

Today
High -- | Low -- °F
--% Chance of Precip.
Yesterday
High -- | Low -- °F
Precip. -- in
Pressure 29.74 in
Visibility 4.0 miles
Clouds Few 100 ft
Scattered Clouds 400 ft
Mostly Cloudy 1200 ft
Overcast 1500 ft
Windchill 47 °F
Dew Point 46 °F
Humidity 98%
Rainfall 0.13 in
Snow Depth Not available.
5:56 AM 8:18 PM
Waning Crescent, 0% visible
SPECI CYXX 261048Z 23003KT 4SM -RA BR FEW001 SCT004 BKN012 OVC015 08/08 A2973 RMK SF2SF1SC3SC2 SLP070
Pressure 29.74 in
Visibility 4.0 miles
Clouds Few 100 ft
Scattered Clouds 400 ft
Mostly Cloudy 1200 ft
Overcast 1500 ft
Windchill 47 °F
Dew Point 46 °F
Humidity 98%
Rainfall 0.13 in
Snow Depth Not available.
5:56 AM 8:18 PM
Waning Crescent, 0% visible
SPECI CYXX 261048Z 23003KT 4SM -RA BR FEW001 SCT004 BKN012 OVC015 08/08 A2973 RMK SF2SF1SC3SC2 SLP070

Get Severe Weather Alerts

Thanks for signing up!

Be on the lookout for a verification email in your inbox.

You'll start receiving the daily forecast at 8 AM.

×

10-Day Weather Forecast

Almanac

Astronomy

Apr. 26, 2017 Rise Set
Actual Time
Civil Twilight
Nautical Twilight
Astronomical Twilight
Moon
Length of Visible Light
Length of Day
Tomorrow will be .
, % of the Moon is Illuminated

Today's Extremes

Country Highs Country Lows

Community

WunderPhotos

WunderBlog® & News

Nearby

Air Quality

  Air Quality AQ Index Pollutant
Not available.

Snow Depth

Station Depth Elevation

Earthquake Activity

City Distance Mag. Time & Date
Minimum magnitude displayed is 2.5.

Coastal Water Temperatures

Place Temperature

Stations

Nearby Weather Stations

Station Location Temp. Windchill Dew Point Humidity Wind Precip. Elev Updated Type
                   

Watches & Warnings

There are currently no watches in effect.